Time;durP1;ratioP1;P1;durP2;ratioP2;P2;SDS_P1;SDS_P2;PMS_P1;PMS_P2;Temp;Humidity;BMP_temperature;BMP_pressure;BME280_temperature;BME280_humidity;BME280_pressure;Samples;Min_cycle;Max_cycle;Signal;HPM_P1;HPM_P2
2021/09/04 00:00:14;;;;;;;17.85;11.25;;;9.80;99.90;;;;;;4996163;28;20033;-44
2021/09/04 00:02:39;;;;;;;15.68;10.02;;;9.70;99.90;;;;;;4996139;28;20022;-42
2021/09/04 00:05:06;;;;;;;24.98;12.60;;;9.70;99.90;;;;;;4994841;28;20031;-42
2021/09/04 00:07:32;;;;;;;18.63;10.88;;;9.70;99.90;;;;;;4995926;28;20109;-43
2021/09/04 00:09:58;;;;;;;17.60;9.77;;;9.70;99.90;;;;;;4996064;28;20121;-42
2021/09/04 00:12:26;;;;;;;21.38;12.95;;;9.70;99.90;;;;;;4994879;28;20093;-43
2021/09/04 00:14:55;;;;;;;19.17;10.65;;;9.70;99.90;;;;;;4995890;28;20458;-42
2021/09/04 00:17:20;;;;;;;17.13;10.98;;;9.70;99.90;;;;;;4995708;28;20030;-43
2021/09/04 00:19:46;;;;;;;19.48;11.02;;;9.70;99.90;;;;;;4995853;28;20028;-43
2021/09/04 00:22:12;;;;;;;14.98;10.15;;;9.70;99.90;;;;;;4995643;28;20114;-42
2021/09/04 00:24:38;;;;;;;20.77;11.52;;;9.70;99.90;;;;;;4995729;28;20066;-42
2021/09/04 00:27:06;;;;;;;23.35;12.68;;;9.70;99.90;;;;;;4995722;28;20082;-45
2021/09/04 00:29:32;;;;;;;20.92;12.30;;;9.70;99.90;;;;;;4994262;28;20035;-43
2021/09/04 00:31:57;;;;;;;15.48;11.13;;;9.80;99.90;;;;;;4995582;28;20041;-44
2021/09/04 00:34:23;;;;;;;12.68;8.85;;;9.80;99.90;;;;;;4995574;28;20030;-45
2021/09/04 00:36:48;;;;;;;13.30;8.25;;;9.90;99.90;;;;;;4995362;28;20022;-42
2021/09/04 00:39:14;;;;;;;18.40;11.05;;;10.00;99.90;;;;;;4995389;28;20026;-43
2021/09/04 00:41:39;;;;;;;13.75;9.18;;;10.00;99.90;;;;;;4995447;28;20030;-42
2021/09/04 00:44:05;;;;;;;15.07;10.10;;;10.10;99.90;;;;;;4994123;28;20026;-42
2021/09/04 00:46:31;;;;;;;15.00;9.00;;;10.20;99.90;;;;;;4995109;28;20260;-43
2021/09/04 00:48:58;;;;;;;16.83;10.23;;;10.30;99.90;;;;;;4995325;28;20022;-44
2021/09/04 00:51:23;;;;;;;16.98;9.75;;;10.40;99.90;;;;;;4995061;28;20026;-43
2021/09/04 00:53:51;;;;;;;16.35;9.90;;;10.50;99.90;;;;;;4995244;28;20026;-42
2021/09/04 00:56:16;;;;;;;16.63;10.00;;;10.60;99.90;;;;;;4995047;28;20478;-42
2021/09/04 00:58:42;;;;;;;16.98;10.52;;;10.60;99.90;;;;;;4993685;28;20026;-42
2021/09/04 01:01:08;;;;;;;19.33;9.43;;;10.70;99.90;;;;;;4995062;28;20023;-42
2021/09/04 01:03:34;;;;;;;17.60;11.00;;;10.60;99.90;;;;;;4994961;28;20110;-42
2021/09/04 01:05:59;;;;;;;17.75;11.90;;;10.60;99.90;;;;;;4994782;28;20022;-42
2021/09/04 01:08:25;;;;;;;20.75;11.18;;;10.60;99.90;;;;;;4994917;28;20038;-42
2021/09/04 01:10:51;;;;;;;17.55;11.07;;;10.40;99.90;;;;;;4993647;28;20049;-43
2021/09/04 01:13:20;;;;;;;19.00;11.35;;;10.40;99.90;;;;;;4993720;28;20026;-42
2021/09/04 01:15:47;;;;;;;16.17;9.48;;;10.30;99.90;;;;;;4994537;28;20109;-45
2021/09/04 01:18:12;;;;;;;15.27;9.75;;;10.30;99.90;;;;;;4994569;28;20074;-42
2021/09/04 01:20:38;;;;;;;19.70;11.32;;;10.20;99.90;;;;;;4994593;28;20054;-43
2021/09/04 01:23:04;;;;;;;18.02;11.05;;;10.20;99.90;;;;;;4994651;28;20418;-42
2021/09/04 01:25:31;;;;;;;14.57;9.20;;;10.10;99.90;;;;;;4994549;28;20022;-43
2021/09/04 01:27:59;;;;;;;15.30;10.07;;;10.00;99.90;;;;;;4993273;28;20555;-43
2021/09/04 01:30:25;;;;;;;14.80;9.48;;;10.00;99.90;;;;;;4994522;28;20076;-43
2021/09/04 01:32:51;;;;;;;17.40;8.73;;;9.90;99.90;;;;;;4994623;28;20030;-43
2021/09/04 01:35:24;;;;;;;13.00;8.73;;;9.80;99.90;;;;;;4994284;28;20057;-41
2021/09/04 01:37:51;;;;;;;18.85;10.50;;;9.80;99.90;;;;;;4994337;28;20027;-43
2021/09/04 01:40:17;;;;;;;15.10;9.95;;;9.70;99.90;;;;;;4994294;28;20497;-46
2021/09/04 01:42:45;;;;;;;17.25;10.02;;;9.70;99.90;;;;;;4992974;28;20030;-42
2021/09/04 01:45:11;;;;;;;16.25;9.82;;;9.70;99.90;;;;;;4994182;28;20022;-42
2021/09/04 01:47:37;;;;;;;16.42;9.15;;;9.60;99.90;;;;;;4993882;28;20086;-43
2021/09/04 01:50:05;;;;;;;17.90;10.50;;;9.60;99.90;;;;;;4994087;28;20132;-42
2021/09/04 01:52:31;;;;;;;19.88;11.05;;;9.60;99.90;;;;;;4994100;28;20488;-43
2021/09/04 01:54:56;;;;;;;17.55;10.82;;;9.60;99.90;;;;;;4994084;28;20038;-42
2021/09/04 01:57:22;;;;;;;17.00;9.55;;;9.50;99.90;;;;;;4992626;28;20038;-44
2021/09/04 01:59:47;;;;;;;14.23;8.20;;;9.50;99.90;;;;;;4993942;28;20030;-42
2021/09/04 02:02:14;;;;;;;16.70;9.93;;;9.40;99.90;;;;;;4993877;28;20018;-45
2021/09/04 02:04:40;;;;;;;15.00;9.30;;;9.40;99.90;;;;;;4993870;28;20061;-42
2021/09/04 02:07:05;;;;;;;17.95;10.05;;;9.40;99.90;;;;;;4994038;28;20034;-42
2021/09/04 02:09:31;;;;;;;15.68;10.00;;;9.40;99.90;;;;;;4993722;28;20163;-41
2021/09/04 02:11:57;;;;;;;15.00;10.10;;;9.40;99.90;;;;;;4993818;28;20068;-42
2021/09/04 02:14:23;;;;;;;15.57;9.95;;;9.30;99.90;;;;;;4992455;28;20438;-41
2021/09/04 02:16:49;;;;;;;17.20;9.93;;;9.30;99.90;;;;;;4993616;28;20378;-42
2021/09/04 02:19:15;;;;;;;14.38;9.20;;;9.30;99.90;;;;;;4993679;28;20461;-43
2021/09/04 02:21:40;;;;;;;17.38;9.57;;;9.20;99.90;;;;;;4993636;28;20025;-41
2021/09/04 02:24:06;;;;;;;18.33;10.20;;;9.20;99.90;;;;;;4993664;28;20026;-45
2021/09/04 02:26:32;;;;;;;18.38;9.63;;;9.30;99.90;;;;;;4993582;28;20053;-44
2021/09/04 02:28:57;;;;;;;17.63;9.02;;;9.30;99.90;;;;;;4991701;28;20027;-43
2021/09/04 02:31:24;;;;;;;19.42;10.45;;;9.20;99.90;;;;;;4993448;28;20146;-44
2021/09/04 02:33:51;;;;;;;18.65;10.63;;;9.20;99.90;;;;;;4993622;28;20080;-42
2021/09/04 02:36:17;;;;;;;19.73;10.60;;;9.10;99.90;;;;;;4993477;28;20030;-44
2021/09/04 02:38:42;;;;;;;15.02;9.30;;;9.10;99.90;;;;;;4993355;28;20441;-44
2021/09/04 02:41:08;;;;;;;18.02;10.15;;;9.10;99.90;;;;;;4993700;28;20030;-42
2021/09/04 02:43:34;;;;;;;14.90;9.02;;;9.10;99.90;;;;;;4992168;28;20019;-42
2021/09/04 02:45:59;;;;;;;16.65;9.43;;;9.00;99.90;;;;;;4993265;28;20042;-46
2021/09/04 02:48:25;;;;;;;19.65;10.38;;;9.00;99.90;;;;;;4993405;28;20026;-44
2021/09/04 02:50:50;;;;;;;19.30;10.35;;;9.00;99.90;;;;;;4993385;28;20136;-46
2021/09/04 02:53:16;;;;;;;14.73;9.13;;;9.00;99.90;;;;;;4993447;28;20033;-42
2021/09/04 02:55:41;;;;;;;25.85;11.90;;;9.00;99.90;;;;;;4993347;28;20062;-42
2021/09/04 02:58:07;;;;;;;16.67;10.18;;;9.10;99.90;;;;;;4992029;28;20026;-42
2021/09/04 03:00:32;;;;;;;23.02;11.05;;;9.00;99.90;;;;;;4993299;28;20034;-44
2021/09/04 03:02:58;;;;;;;15.50;9.65;;;9.10;99.90;;;;;;4993287;28;20105;-44
2021/09/04 03:05:24;;;;;;;13.27;8.32;;;9.20;99.90;;;;;;4993248;28;20035;-44
2021/09/04 03:07:50;;;;;;;18.40;9.98;;;9.20;99.90;;;;;;4993186;28;20033;-42
2021/09/04 03:10:15;;;;;;;13.45;8.15;;;9.30;99.90;;;;;;4993210;28;20034;-42
2021/09/04 03:12:41;;;;;;;15.57;8.55;;;9.50;99.90;;;;;;4991907;28;20041;-43
2021/09/04 03:15:07;;;;;;;13.55;7.90;;;9.50;99.90;;;;;;4993171;28;20027;-43
2021/09/04 03:17:32;;;;;;;16.45;9.32;;;9.60;99.90;;;;;;4992952;28;20524;-42
2021/09/04 03:19:58;;;;;;;13.88;8.75;;;9.70;99.90;;;;;;4993205;28;20072;-42
2021/09/04 03:22:23;;;;;;;18.73;10.10;;;9.80;99.90;;;;;;4993106;28;20018;-43
2021/09/04 03:24:49;;;;;;;13.93;8.82;;;9.80;99.90;;;;;;4993117;28;20094;-43
2021/09/04 03:27:14;;;;;;;14.90;9.00;;;9.90;99.90;;;;;;4992699;28;20031;-43
2021/09/04 03:29:40;;;;;;;18.83;9.32;;;9.90;99.90;;;;;;4992159;28;20030;-44
2021/09/04 03:32:05;;;;;;;18.65;9.65;;;9.90;99.90;;;;;;4992899;28;20030;-42
2021/09/04 03:34:31;;;;;;;17.40;10.25;;;9.90;99.90;;;;;;4992962;28;20031;-42
2021/09/04 03:36:57;;;;;;;16.23;9.70;;;10.00;99.90;;;;;;4992901;28;20026;-43
2021/09/04 03:39:22;;;;;;;21.45;10.88;;;10.10;99.90;;;;;;4993796;28;20041;-45
2021/09/04 03:41:48;;;;;;;14.68;8.60;;;10.00;99.90;;;;;;4996460;28;20027;-42
2021/09/04 03:44:13;;;;;;;15.30;9.27;;;10.10;99.90;;;;;;4995180;28;20022;-43
2021/09/04 03:46:40;;;;;;;16.27;8.98;;;10.10;99.90;;;;;;4996123;28;20046;-43
2021/09/04 03:49:05;;;;;;;14.48;8.77;;;10.10;99.90;;;;;;4996371;28;20061;-42
2021/09/04 03:51:31;;;;;;;14.48;9.13;;;10.10;99.90;;;;;;4996269;28;20027;-42
2021/09/04 03:53:56;;;;;;;15.90;9.18;;;10.10;99.90;;;;;;4996412;28;20069;-42
2021/09/04 03:56:22;;;;;;;16.38;9.10;;;10.10;99.90;;;;;;4996239;28;20026;-42
2021/09/04 03:58:48;;;;;;;14.82;9.52;;;10.00;99.90;;;;;;4994778;28;20026;-42
2021/09/04 04:01:14;;;;;;;20.23;9.85;;;10.10;99.90;;;;;;4996068;28;20022;-44
2021/09/04 04:03:40;;;;;;;23.98;10.77;;;10.10;99.90;;;;;;4996090;28;20023;-42
2021/09/04 04:06:05;;;;;;;17.02;9.00;;;10.10;99.90;;;;;;4996059;28;20068;-43
2021/09/04 04:08:31;;;;;;;13.50;8.82;;;10.10;99.90;;;;;;4996059;28;20038;-42
2021/09/04 04:11:07;;;;;;;13.35;8.02;;;10.00;99.90;;;;;;4996059;28;20440;-45
2021/09/04 04:13:33;;;;;;;14.93;8.43;;;10.00;99.90;;;;;;4994700;28;20117;-45
2021/09/04 04:15:59;;;;;;;18.15;10.32;;;10.00;99.90;;;;;;4995812;28;20101;-43
2021/09/04 04:18:24;;;;;;;14.57;8.43;;;10.00;99.90;;;;;;4995805;28;20597;-42
2021/09/04 04:20:50;;;;;;;17.17;9.65;;;10.00;99.90;;;;;;4995755;28;20035;-42
2021/09/04 04:23:15;;;;;;;20.25;9.18;;;10.00;99.90;;;;;;4995794;28;20466;-44
2021/09/04 04:25:41;;;;;;;15.00;8.30;;;10.00;99.90;;;;;;4995745;28;20058;-42
2021/09/04 04:28:06;;;;;;;15.65;9.18;;;10.00;99.90;;;;;;4994492;28;20026;-44
2021/09/04 04:30:32;;;;;;;14.10;8.95;;;9.90;99.90;;;;;;4995587;28;20040;-42
2021/09/04 04:32:57;;;;;;;12.82;8.55;;;9.90;99.90;;;;;;4995601;28;20035;-41
2021/09/04 04:35:23;;;;;;;14.15;9.20;;;9.90;99.90;;;;;;4995598;28;20044;-43
2021/09/04 04:37:48;;;;;;;13.68;8.65;;;9.90;99.90;;;;;;4995426;28;20429;-42
2021/09/04 04:40:14;;;;;;;18.73;9.40;;;9.90;99.90;;;;;;4995462;28;20037;-44
2021/09/04 04:42:39;;;;;;;15.02;9.55;;;9.90;99.90;;;;;;4994123;28;20489;-42
2021/09/04 04:45:06;;;;;;;16.42;9.57;;;10.00;99.90;;;;;;4995351;28;20077;-43
2021/09/04 04:47:32;;;;;;;14.60;9.35;;;10.00;99.90;;;;;;4995166;28;20096;-43
2021/09/04 04:49:58;;;;;;;13.68;7.93;;;10.10;99.90;;;;;;4995283;28;20018;-42
2021/09/04 04:52:24;;;;;;;20.48;10.93;;;10.30;99.90;;;;;;4994518;28;20034;-43
2021/09/04 04:54:50;;;;;;;23.85;11.00;;;10.40;99.90;;;;;;4995123;28;20038;-42
2021/09/04 04:57:15;;;;;;;16.75;10.00;;;10.40;99.90;;;;;;4994141;28;20049;-43
2021/09/04 04:59:40;;;;;;;17.27;9.80;;;10.60;99.90;;;;;;4994814;28;20108;-42
2021/09/04 05:02:06;;;;;;;17.40;9.18;;;10.70;99.90;;;;;;4995085;28;20385;-42
2021/09/04 05:04:31;;;;;;;28.67;12.98;;;10.80;99.90;;;;;;4995002;28;20033;-42
2021/09/04 05:06:57;;;;;;;17.55;10.75;;;10.90;99.90;;;;;;4994952;28;20038;-41
2021/09/04 05:09:22;;;;;;;36.42;14.20;;;11.00;99.90;;;;;;4994932;28;20073;-43
2021/09/04 05:11:48;;;;;;;43.03;12.35;;;11.20;99.90;;;;;;4994837;28;20027;-42
2021/09/04 05:14:13;;;;;;;28.30;9.90;;;11.30;99.90;;;;;;4993401;28;20038;-44
2021/09/04 05:16:39;;;;;;;34.65;10.13;;;11.40;99.90;;;;;;4994614;28;20030;-44
2021/09/04 05:19:05;;;;;;;20.83;9.10;;;11.50;99.90;;;;;;4994751;28;20022;-43
2021/09/04 05:21:30;;;;;;;18.60;9.23;;;11.70;99.90;;;;;;4994699;28;20026;-43
2021/09/04 05:23:56;;;;;;;17.65;9.88;;;11.90;99.90;;;;;;4994766;28;20106;-44
2021/09/04 05:26:21;;;;;;;13.63;8.95;;;12.00;99.90;;;;;;4994576;28;20045;-44
2021/09/04 05:28:47;;;;;;;15.07;9.20;;;12.10;99.90;;;;;;4993046;28;20061;-43
2021/09/04 05:31:12;;;;;;;15.18;10.00;;;12.20;99.90;;;;;;4994495;28;20505;-45
2021/09/04 05:33:38;;;;;;;22.90;9.80;;;12.20;99.90;;;;;;4994408;28;20031;-45
2021/09/04 05:36:04;;;;;;;18.65;9.02;;;12.30;99.90;;;;;;4994415;28;20041;-43
2021/09/04 05:38:29;;;;;;;13.48;9.35;;;12.30;99.90;;;;;;4994371;28;20030;-45
2021/09/04 05:40:55;;;;;;;14.73;9.57;;;12.40;99.90;;;;;;4994263;28;20117;-43
2021/09/04 05:43:20;;;;;;;17.15;10.20;;;12.40;99.90;;;;;;4993060;28;20038;-43
2021/09/04 05:45:47;;;;;;;22.95;9.95;;;12.60;99.90;;;;;;4993971;28;20034;-43
2021/09/04 05:48:13;;;;;;;26.83;10.48;;;12.70;99.90;;;;;;4994191;28;20077;-44
2021/09/04 05:50:38;;;;;;;14.68;8.85;;;12.80;99.90;;;;;;4994152;28;20057;-45
2021/09/04 05:53:04;;;;;;;20.33;10.73;;;12.90;99.90;;;;;;4994088;28;20039;-42
2021/09/04 05:55:29;;;;;;;14.77;8.90;;;13.00;99.90;;;;;;4994083;28;20030;-45
2021/09/04 05:57:55;;;;;;;18.45;10.18;;;13.20;99.90;;;;;;5007665;28;20035;-46
2021/09/04 06:00:20;;;;;;;15.63;8.98;;;13.20;99.90;;;;;;4993997;28;20084;-44
2021/09/04 06:02:46;;;;;;;15.30;9.15;;;13.30;99.90;;;;;;4992931;28;20038;-42
2021/09/04 06:05:11;;;;;;;13.15;8.70;;;13.30;99.90;;;;;;4993967;28;20030;-45
2021/09/04 06:07:37;;;;;;;15.02;8.55;;;13.30;99.90;;;;;;4993507;28;20037;-42
2021/09/04 06:10:03;;;;;;;15.40;9.65;;;13.40;99.90;;;;;;4993907;28;20493;-45
2021/09/04 06:12:28;;;;;;;14.05;8.90;;;13.50;99.90;;;;;;4992484;28;20137;-45
2021/09/04 06:14:54;;;;;;;16.23;9.98;;;13.50;99.90;;;;;;4993690;28;20109;-43
2021/09/04 06:17:19;;;;;;;17.50;11.15;;;13.60;99.90;;;;;;4993705;28;20034;-42
2021/09/04 06:19:45;;;;;;;17.58;10.63;;;13.70;99.90;;;;;;4993689;28;20393;-43
2021/09/04 06:22:10;;;;;;;18.25;10.40;;;13.80;99.90;;;;;;4993707;28;20026;-43
2021/09/04 06:24:36;;;;;;;16.15;10.23;;;13.80;99.90;;;;;;4993662;28;20029;-45
2021/09/04 06:27:01;;;;;;;14.30;9.85;;;13.80;99.90;;;;;;4993596;28;20038;-41
2021/09/04 06:29:27;;;;;;;15.88;9.57;;;13.80;99.90;;;;;;4992257;28;20053;-43
2021/09/04 06:31:53;;;;;;;14.65;9.35;;;13.90;99.90;;;;;;4993545;28;20030;-45
2021/09/04 06:34:18;;;;;;;15.55;9.93;;;14.00;99.90;;;;;;4993556;28;20469;-43
2021/09/04 06:36:44;;;;;;;17.02;11.65;;;14.10;99.90;;;;;;4993407;28;20034;-42
2021/09/04 06:39:09;;;;;;;14.68;9.95;;;14.30;99.90;;;;;;4993491;28;20061;-42
2021/09/04 06:41:35;;;;;;;15.55;10.10;;;14.40;99.90;;;;;;4993450;28;20022;-43
2021/09/04 06:44:00;;;;;;;18.60;11.60;;;14.60;99.90;;;;;;4992023;28;20031;-43
2021/09/04 06:46:26;;;;;;;14.77;9.77;;;14.70;99.90;;;;;;4993351;28;20043;-43
2021/09/04 06:48:52;;;;;;;13.95;10.02;;;14.80;99.90;;;;;;4993370;28;20469;-43
2021/09/04 06:51:17;;;;;;;14.25;9.63;;;14.80;99.90;;;;;;4993342;28;20118;-42
2021/09/04 06:53:43;;;;;;;15.77;10.75;;;14.90;99.90;;;;;;4993372;28;20087;-43
2021/09/04 06:56:08;;;;;;;18.83;11.57;;;15.00;99.90;;;;;;4993265;28;20358;-45
2021/09/04 06:58:34;;;;;;;20.63;13.52;;;15.20;99.90;;;;;;4991828;28;20359;-43
2021/09/04 07:01:00;;;;;;;20.45;12.43;;;15.30;99.90;;;;;;4993272;28;20018;-45
2021/09/04 07:03:26;;;;;;;28.23;14.77;;;15.50;99.90;;;;;;4993293;28;20014;-43
2021/09/04 07:05:52;;;;;;;25.60;13.68;;;15.80;99.90;;;;;;4993205;28;20508;-44
2021/09/04 07:08:17;;;;;;;19.52;11.40;;;15.90;99.90;;;;;;4993304;28;20549;-44
2021/09/04 07:10:43;;;;;;;18.25;11.55;;;16.10;99.90;;;;;;4993204;28;20030;-43
2021/09/04 07:13:08;;;;;;;22.17;13.20;;;16.20;99.90;;;;;;4991794;28;20109;-46
2021/09/04 07:15:34;;;;;;;22.65;12.80;;;16.30;99.90;;;;;;4995909;28;20041;-43
2021/09/04 07:17:59;;;;;;;23.98;13.73;;;16.50;99.90;;;;;;4996846;28;20045;-43
2021/09/04 07:20:25;;;;;;;20.25;12.60;;;16.60;99.90;;;;;;4997022;28;20026;-43
2021/09/04 07:22:50;;;;;;;19.40;11.93;;;16.70;99.90;;;;;;4996928;28;20019;-46
2021/09/04 07:25:16;;;;;;;31.48;19.88;;;16.90;99.90;;;;;;4996898;28;20355;-44
2021/09/04 07:27:43;;;;;;;31.50;17.55;;;17.00;99.90;;;;;;4995424;28;20035;-44
2021/09/04 07:30:09;;;;;;;25.58;15.77;;;17.10;99.90;;;;;;4996778;28;20022;-44
2021/09/04 07:32:35;;;;;;;23.38;14.63;;;17.30;99.90;;;;;;4996750;28;20033;-43
2021/09/04 07:35:00;;;;;;;23.60;15.40;;;17.60;99.90;;;;;;4996898;28;20030;-44
2021/09/04 07:37:26;;;;;;;22.75;15.35;;;17.80;99.90;;;;;;4996619;28;20072;-44
2021/09/04 07:39:52;;;;;;;22.55;15.10;;;17.90;99.90;;;;;;4996546;28;20041;-43
2021/09/04 07:42:17;;;;;;;21.85;14.25;;;18.10;99.90;;;;;;4995208;28;20038;-44
2021/09/04 07:44:43;;;;;;;19.20;13.43;;;18.50;99.90;;;;;;4996572;28;20030;-44
2021/09/04 07:47:08;;;;;;;21.83;15.23;;;19.00;99.90;;;;;;4996347;28;20409;-43
2021/09/04 07:49:34;;;;;;;21.08;14.70;;;20.30;99.90;;;;;;4996443;28;20034;-45
2021/09/04 07:51:59;;;;;;;22.05;15.95;;;20.90;99.90;;;;;;4996363;28;20042;-48
2021/09/04 07:54:25;;;;;;;20.70;14.25;;;21.70;99.90;;;;;;4996383;28;20532;-49
2021/09/04 07:56:50;;;;;;;20.42;15.35;;;22.10;99.90;;;;;;4996112;28;20485;-46
2021/09/04 07:59:16;;;;;;;25.63;17.98;;;22.50;99.90;;;;;;4995015;28;20034;-44
2021/09/04 08:01:41;;;;;;;22.60;16.70;;;23.40;99.90;;;;;;4996229;28;20026;-46
2021/09/04 08:04:07;;;;;;;25.20;18.70;;;24.40;99.90;;;;;;4994896;28;20037;-44
2021/09/04 08:06:32;;;;;;;27.88;21.25;;;24.90;99.90;;;;;;4996117;28;20034;-46
2021/09/04 08:08:58;;;;;;;24.00;18.30;;;25.30;99.90;;;;;;4996017;28;20461;-42
2021/09/04 08:11:23;;;;;;;24.08;17.73;;;25.70;99.90;;;;;;4996027;28;20092;-46
2021/09/04 08:13:49;;;;;;;19.40;16.13;;;26.80;99.90;;;;;;4994700;28;20097;-45
2021/09/04 08:16:14;;;;;;;20.33;16.23;;;26.60;98.80;;;;;;4995884;28;20026;-44
2021/09/04 08:18:40;;;;;;;19.50;13.73;;;26.50;99.90;;;;;;4995861;28;20030;-44
2021/09/04 08:21:05;;;;;;;16.42;14.25;;;26.30;99.60;;;;;;4995829;28;20026;-46
2021/09/04 08:23:31;;;;;;;20.73;15.75;;;26.00;98.90;;;;;;4995866;28;20485;-48
2021/09/04 08:25:56;;;;;;;19.67;15.63;;;26.50;97.80;;;;;;4994622;28;20358;-45
2021/09/04 08:28:22;;;;;;;23.35;16.05;;;26.80;95.80;;;;;;4994304;28;20046;-46
2021/09/04 08:30:48;;;;;;;20.08;16.48;;;26.50;95.50;;;;;;4995652;28;20113;-46
2021/09/04 08:33:14;;;;;;;19.10;13.73;;;26.20;93.70;;;;;;4995555;28;20069;-46
2021/09/04 08:35:40;;;;;;;23.10;17.50;;;25.90;92.10;;;;;;4995779;28;20405;-45
2021/09/04 08:38:09;;;;;;;21.05;14.57;;;25.90;92.10;;;;;;4995438;28;20022;-44
2021/09/04 08:40:40;;;;;;;18.08;14.82;;;26.60;90.00;;;;;;4995468;28;20037;-46
2021/09/04 08:43:06;;;;;;;18.45;14.90;;;27.00;85.60;;;;;;4994069;28;20074;-46
2021/09/04 08:45:32;;;;;;;23.10;16.20;;;27.30;84.40;;;;;;4995446;28;20488;-46
2021/09/04 08:47:59;;;;;;;18.92;14.40;;;27.20;81.70;;;;;;4995173;28;20046;-44
2021/09/04 08:50:25;;;;;;;18.17;15.10;;;26.90;80.50;;;;;;4995340;28;20077;-46
2021/09/04 08:52:52;;;;;;;18.60;14.25;;;26.50;82.40;;;;;;4995265;28;20026;-44
2021/09/04 08:55:17;;;;;;;20.10;14.02;;;26.30;82.10;;;;;;4995114;28;20429;-46
2021/09/04 08:57:43;;;;;;;18.60;13.63;;;26.10;81.80;;;;;;4993877;28;20089;-46
2021/09/04 09:00:09;;;;;;;19.42;15.13;;;25.60;83.10;;;;;;4993807;28;20446;-44
2021/09/04 09:02:34;;;;;;;20.42;16.92;;;25.60;82.90;;;;;;4995413;28;20370;-47
2021/09/04 09:05:06;;;;;;;16.10;13.70;;;26.10;80.60;;;;;;4995099;28;20030;-44
2021/09/04 09:07:42;;;;;;;19.98;15.73;;;26.70;77.00;;;;;;4995028;28;20026;-47
2021/09/04 09:10:22;;;;;;;21.23;16.00;;;26.80;65.40;;;;;;4994822;28;20037;-47
2021/09/04 09:12:51;;;;;;;17.63;15.20;;;26.30;72.50;;;;;;4993724;28;20023;-45
2021/09/04 09:15:26;;;;;;;26.65;16.85;;;25.80;75.40;;;;;;4994786;28;20471;-45
2021/09/04 09:18:10;;;;;;;19.30;16.02;;;25.30;74.70;;;;;;4994759;28;20526;-46
2021/09/04 09:20:37;;;;;;;17.75;14.35;;;24.90;70.10;;;;;;4994591;28;20046;-43
2021/09/04 09:23:10;;;;;;;15.55;12.98;;;24.40;78.70;;;;;;4994689;28;20026;-44
2021/09/04 09:25:36;;;;;;;20.45;13.98;;;24.50;77.60;;;;;;4994622;28;20018;-44
2021/09/04 09:28:01;;;;;;;18.90;13.45;;;25.30;74.60;;;;;;4993319;28;20041;-46
2021/09/04 09:30:32;;;;;;;13.60;12.18;;;25.40;72.90;;;;;;4994492;28;20470;-45
2021/09/04 09:32:57;;;;;;;18.80;13.88;;;25.40;67.70;;;;;;4994394;28;20046;-44
2021/09/04 09:35:41;;;;;;;17.35;14.88;;;25.90;67.90;;;;;;4994392;28;20552;-46
2021/09/04 09:38:09;;;;;;;19.63;15.57;;;26.80;60.10;;;;;;4994034;28;20072;-44
2021/09/04 09:40:36;;;;;;;21.40;16.20;;;27.30;60.80;;;;;;4994371;28;20554;-44
2021/09/04 09:43:10;;;;;;;16.55;14.32;;;27.60;59.60;;;;;;4993049;28;20031;-46
2021/09/04 09:45:49;;;;;;;19.25;14.68;;;28.00;58.80;;;;;;4994069;28;20027;-44
2021/09/04 09:48:20;;;;;;;16.15;13.18;;;28.10;53.10;;;;;;4994208;28;20065;-46
2021/09/04 09:50:46;;;;;;;16.65;13.18;;;27.70;53.90;;;;;;4994201;28;20080;-45
2021/09/04 09:53:12;;;;;;;15.85;13.70;;;27.70;58.20;;;;;;4994110;28;20080;-45
2021/09/04 09:55:42;;;;;;;14.13;11.15;;;27.70;57.20;;;;;;4994098;28;20469;-44
2021/09/04 09:58:09;;;;;;;11.98;10.68;;;27.30;55.50;;;;;;4992623;28;20034;-46
2021/09/04 10:00:35;;;;;;;13.38;10.77;;;27.50;57.20;;;;;;4994008;28;20417;-49
2021/09/04 10:03:04;;;;;;;18.95;15.23;;;27.70;56.40;;;;;;4994037;28;20027;-47
2021/09/04 10:05:30;;;;;;;21.08;13.70;;;27.50;55.30;;;;;;4993936;28;20025;-44
2021/09/04 10:07:57;;;;;;;14.73;13.05;;;27.30;55.00;;;;;;4993985;28;20030;-46
2021/09/04 10:10:27;;;;;;;15.88;12.23;;;26.90;56.00;;;;;;4993749;28;20503;-46
2021/09/04 10:12:54;;;;;;;15.65;11.98;;;26.50;55.50;;;;;;4992763;28;20089;-49
2021/09/04 10:15:21;;;;;;;15.43;12.45;;;26.10;57.40;;;;;;4993797;28;20041;-48
2021/09/04 10:17:51;;;;;;;16.83;13.10;;;26.10;58.40;;;;;;4993713;28;20030;-45
2021/09/04 10:20:16;;;;;;;16.13;12.30;;;25.80;58.50;;;;;;4993705;28;20064;-46
2021/09/04 10:22:44;;;;;;;18.75;14.00;;;25.50;59.50;;;;;;4993713;28;20054;-43
2021/09/04 10:25:17;;;;;;;24.85;18.42;;;25.20;59.90;;;;;;4993577;28;20109;-47
2021/09/04 10:27:45;;;;;;;26.27;18.38;;;24.80;59.20;;;;;;4992400;28;20063;-46
2021/09/04 10:30:33;;;;;;;17.58;14.20;;;24.30;62.00;;;;;;4993605;28;20033;-46
2021/09/04 10:33:06;;;;;;;16.63;13.57;;;24.20;63.50;;;;;;4993670;28;20031;-50
2021/09/04 10:35:51;;;;;;;14.98;11.35;;;24.20;64.70;;;;;;4993556;28;20049;-45
2021/09/04 10:38:19;;;;;;;14.25;11.25;;;24.20;65.30;;;;;;4993424;28;20110;-50
2021/09/04 10:41:12;;;;;;;15.48;11.27;;;24.10;65.70;;;;;;4993758;28;20409;-46
2021/09/04 10:43:43;;;;;;;13.23;11.00;;;24.00;65.90;;;;;;4992155;28;20062;-46
2021/09/04 10:46:11;;;;;;;14.10;11.20;;;23.90;66.40;;;;;;4993319;28;20042;-46
2021/09/04 10:48:37;;;;;;;12.43;9.73;;;23.70;67.30;;;;;;4993479;28;20038;-43
2021/09/04 10:51:08;;;;;;;13.25;9.77;;;23.60;68.40;;;;;;4997149;28;20030;-47
2021/09/04 10:53:51;;;;;;;13.40;10.57;;;23.40;69.20;;;;;;4997421;28;20038;-45
2021/09/04 10:56:31;;;;;;;16.27;11.35;;;23.30;70.30;;;;;;4997293;28;20077;-46
2021/09/04 10:58:57;;;;;;;15.15;11.57;;;23.20;73.70;;;;;;4996039;28;20073;-46
2021/09/04 11:01:48;;;;;;;15.07;11.45;;;23.10;72.60;;;;;;4996008;28;20064;-45
2021/09/04 11:04:13;;;;;;;17.02;11.63;;;23.10;73.50;;;;;;4992221;28;20042;-46
2021/09/04 11:06:47;;;;;;;16.15;12.40;;;23.10;72.20;;;;;;4997207;28;20025;-46
2021/09/04 11:09:12;;;;;;;16.42;12.43;;;23.10;72.30;;;;;;4997153;28;20022;-44
2021/09/04 11:11:39;;;;;;;15.40;11.77;;;23.10;73.20;;;;;;4997138;28;20029;-44
2021/09/04 11:14:16;;;;;;;14.50;10.95;;;23.10;72.80;;;;;;4995845;28;20377;-45
2021/09/04 11:16:45;;;;;;;23.15;16.05;;;23.10;73.40;;;;;;4997064;28;20354;-46
2021/09/04 11:19:14;;;;;;;17.33;13.27;;;23.10;73.30;;;;;;4996875;28;20382;-48
2021/09/04 11:21:52;;;;;;;22.85;16.10;;;23.00;73.20;;;;;;4996829;28;20018;-46
2021/09/04 11:24:19;;;;;;;16.25;12.10;;;22.90;75.10;;;;;;4996838;28;20014;-46
2021/09/04 11:26:52;;;;;;;20.98;13.60;;;22.80;76.40;;;;;;4996849;28;20029;-46
2021/09/04 11:29:18;;;;;;;15.88;11.32;;;22.80;77.70;;;;;;4995465;28;20113;-48
2021/09/04 11:31:52;;;;;;;14.38;10.90;;;22.90;76.90;;;;;;4996711;28;20109;-46
2021/09/04 11:34:17;;;;;;;13.27;9.80;;;23.00;76.50;;;;;;4996762;28;20026;-46
2021/09/04 11:36:43;;;;;;;13.15;9.45;;;23.00;75.80;;;;;;4996727;28;20072;-47
2021/09/04 11:39:08;;;;;;;15.68;10.05;;;23.00;76.00;;;;;;4996646;28;20037;-47
2021/09/04 11:41:44;;;;;;;13.60;10.15;;;23.00;75.00;;;;;;4995333;28;20099;-44
2021/09/04 11:44:10;;;;;;;14.63;11.55;;;23.10;74.20;;;;;;4995337;28;20029;-43
2021/09/04 11:46:37;;;;;;;13.70;9.95;;;23.10;74.30;;;;;;4996538;28;20046;-44
2021/09/04 11:49:03;;;;;;;15.18;11.55;;;23.20;74.30;;;;;;4996493;28;20034;-44
2021/09/04 11:51:28;;;;;;;14.25;10.73;;;23.40;74.00;;;;;;4996414;28;20093;-43
2021/09/04 11:54:03;;;;;;;15.23;11.85;;;23.50;73.00;;;;;;4996402;28;20034;-48
2021/09/04 11:56:31;;;;;;;18.50;11.52;;;23.40;71.40;;;;;;4996427;28;20434;-44
2021/09/04 11:59:07;;;;;;;14.18;11.02;;;23.30;73.00;;;;;;4994846;28;20374;-44
2021/09/04 12:01:33;;;;;;;16.63;11.50;;;23.30;73.70;;;;;;4996197;28;20022;-44
2021/09/04 12:03:58;;;;;;;13.93;10.77;;;23.30;73.50;;;;;;4996265;28;20030;-46
2021/09/04 12:06:24;;;;;;;14.88;11.10;;;23.20;74.00;;;;;;4996109;28;20022;-46
2021/09/04 12:08:51;;;;;;;24.92;16.58;;;23.10;74.90;;;;;;4996133;28;20054;-43
2021/09/04 12:11:19;;;;;;;20.35;12.98;;;23.10;74.30;;;;;;4996044;28;20101;-46
2021/09/04 12:13:45;;;;;;;16.20;12.07;;;23.00;75.70;;;;;;4994655;28;20040;-43
2021/09/04 12:16:14;;;;;;;11.88;10.20;;;23.10;75.70;;;;;;4995952;28;20026;-46
2021/09/04 12:18:42;;;;;;;13.57;10.43;;;23.20;75.20;;;;;;4995850;28;20500;-45
2021/09/04 12:21:27;;;;;;;12.80;10.00;;;23.30;75.40;;;;;;4995857;28;20031;-44
2021/09/04 12:23:56;;;;;;;15.73;10.73;;;23.50;75.30;;;;;;4995770;28;20027;-45
2021/09/04 12:26:22;;;;;;;16.63;9.85;;;23.50;74.30;;;;;;4995684;28;20536;-45
2021/09/04 12:28:48;;;;;;;14.93;10.27;;;23.50;73.60;;;;;;4994458;28;20042;-44
2021/09/04 12:31:15;;;;;;;16.27;9.85;;;23.40;73.90;;;;;;4995696;28;20080;-46